AirNav   Pilot Hours Calculator
 
 480 users online  

NC40 Holeman Field Airport
Roxboro, North Carolina, USA

GOING TO ROXBORO?


FAA INFORMATION EFFECTIVE 03 NOVEMBER 2022

Location

FAA Identifier: NC40
Lat/Long: 36-29-59.0000N 079-07-07.0000W
36-29.983333N 079-07.116667W
36.4997222,-79.1186111
(estimated)
Elevation: 578 ft. / 176 m (estimated)
From city: 9 miles NW of ROXBORO, NC
Time zone: UTC -5 (UTC -4 during Daylight Saving Time)
Zip code: 27343

Airport Operations

Airport use: Private use. Permission required prior to landing
Activation date: 02/2003
Control tower: no
ARTCC: WASHINGTON CENTER
FSS: RALEIGH FLIGHT SERVICE STATION
Attendance: UNATNDD
Wind indicator: yes
Segmented circle: no

Airport Communications

WX ASOS at DAN (11 nm NW): 128.125 (434-799-1701)
WX AWOS-3 at TDF (14 nm SE): 126.725 (336-364-1651)
WX AWOS-3 at W78 (18 nm NE): 119.425 (434-575-0332)

Nearby radio navigation aids

VOR radial/distance  VOR name  Freq  Var
DANr118/(11.3)DANVILLE VOR113.1006W
SBVr210/11.7SOUTH BOSTON VORTAC110.4005W

 
NDB name  Hdg/Dist  Freq  Var  ID
PERSON359/16.222008WHUR .... ..- .-.
HUNTSBORO305/26.927109WHXO .... -..- ---
SLAMMER084/31.942307WSIF ... .. ..-.

Airport Services

Runway Information

Runway 4/22

Dimensions: 1700 x 50 ft. / 518 x 15 m
Surface: turf
RUNWAY 4  RUNWAY 22
Traffic pattern: leftleft

Airport Ownership and Management from official FAA records

Ownership: Privately-owned
Owner: LAWRENCE R HOLEMAN II
734 FOX LAIR TRAIL
SEMORA, NC 27343
Phone 336-2234-8531
Manager: LAWRENCE R HOLEMAN II
734 FOX LAIR TRAIL
SEMORA, NC 27343
Phone 336-234-8531

Airport Operational Statistics

Aircraft based on the field: 1
Single engine airplanes: 1
    

Additional Remarks

PLINE (MARKED) ON 'NE' END OF FLD.
FOR CD CTC ATLANTA ARTCC AT 770-210-7692.

Instrument Procedures

There are no published instrument procedures at NC40.

Some nearby airports with instrument procedures:

KDAN - Danville Regional Airport (11 nm NW)
KTDF - Raleigh Regional Airport at Person County (14 nm SE)
W78 - William M Tuck Airport (18 nm NE)
W63 - Lake Country Regional Airport (28 nm E)
KHNZ - Henderson/Oxford Airport (30 nm E)
 
Loc | Ops | Rwys | IFR | FBO | Links
Com | Nav | Svcs | Stats | Notes
Area around NC40 (Holeman Field Airport)
 
Road maps at: MapQuest Bing Google
 
Aerial photo
No photo
 
Sectional chart

 
Airport distance calculator
Flying to Holeman Field Airport? Find the distance to fly.

From to NC40

Sunrise and sunset
Times for 28-Nov-2022
 Local
(UTC-5)
 Zulu
(UTC)
Morning civil twilight06:4011:40
Sunrise07:0812:08
Sunset17:0122:01
Evening civil twilight17:2922:29

Current date and time
Zulu (UTC)  28-Nov-2022 10:32:42
Local (UTC-5)  28-Nov-2022 05:32:42
 
METAR
KDAN 
11nm W 
280953Z AUTO 25007KT 10SM CLR 10/04 A2974 RMK AO2 SLP064 T01000044
KTDF 
15nm SE 
281015Z AUTO 25004KT 10SM CLR 10/05 A2977 RMK AO2
KW78 
18nm NE 
281015Z AUTO 25006KT 10SM CLR 11/04 A2973 RMK AO1 T01100040
TAF
KDAN 
11nm W 
280540Z 2806/2906 26011KT P6SM SKC FM280900 28008KT P6SM FEW060 FM281800 31007KT P6SM SCT250
NOTAMs
Click for the latest NOTAMs
NOTAMs are issued by the DoD/FAA and will open in a separate window not controlled by AirNav.

 

 
 

Would you like to see your business listed on this page?

 If your business provides an interesting product or service to pilots, flight crews, aircraft, or users of the Holeman Field Airport, you should consider listing it here.  To start the listing process, click on the button below
 
Add a business
 

Other Pages about Holeman Field Airport

Update a link
 
Copyright © AirNav, LLC. All rights reserved. Privacy Policy  Contact